createdAt,value
2017-12-09T00:02:04.195Z,97817.49
2017-12-09T00:04:31.735Z,97813.83
2017-12-09T00:06:59.263Z,97813.42
2017-12-09T00:09:26.794Z,97810.92
2017-12-09T00:11:54.315Z,97814.73
2017-12-09T00:14:21.862Z,97816.33
2017-12-09T00:16:49.369Z,97806.78
2017-12-09T00:19:16.886Z,97807.64
2017-12-09T00:21:44.408Z,97814.83
2017-12-09T00:24:11.941Z,97814.36
2017-12-09T00:26:39.428Z,97807.14
2017-12-09T00:29:06.922Z,97821.74
2017-12-09T00:31:34.441Z,97820.62
2017-12-09T00:34:01.965Z,97816.41
2017-12-09T00:36:29.483Z,97815.86
2017-12-09T00:38:56.998Z,97810.30
2017-12-09T00:41:24.519Z,97809.87
2017-12-09T00:43:52.046Z,97813.55
2017-12-09T00:46:19.549Z,97817.91
2017-12-09T00:48:47.042Z,97809.91
2017-12-09T00:51:14.569Z,97810.92
2017-12-09T00:53:42.075Z,97804.96
2017-12-09T00:56:09.600Z,97811.61
2017-12-09T00:58:38.015Z,97800.44
2017-12-09T01:01:05.519Z,97814.02
2017-12-09T01:03:33.079Z,97824.73
2017-12-09T01:06:00.612Z,97821.69
2017-12-09T01:08:28.127Z,97817.84
2017-12-09T01:10:55.628Z,97816.02
2017-12-09T01:13:23.122Z,97824.48
2017-12-09T01:16:02.556Z,97819.41
2017-12-09T01:18:42.091Z,97822.31
2017-12-09T01:21:09.605Z,97826.66
2017-12-09T01:23:37.124Z,97826.03
2017-12-09T01:26:04.652Z,97835.31
2017-12-09T01:28:32.219Z,97847.29
2017-12-09T01:30:59.721Z,97839.55
2017-12-09T01:33:27.238Z,97846.75
2017-12-09T01:35:54.779Z,97855.81
2017-12-09T01:38:22.291Z,97857.31
2017-12-09T01:40:49.822Z,97866.32
2017-12-09T01:43:17.326Z,97867.87
2017-12-09T01:45:44.821Z,97874.02
2017-12-09T01:48:12.314Z,97865.13
2017-12-09T01:50:39.802Z,97879.05
2017-12-09T01:53:07.450Z,97877.58
2017-12-09T01:55:34.959Z,97871.83
2017-12-09T01:58:02.474Z,97876.84
2017-12-09T02:00:30.013Z,97868.77
2017-12-09T02:02:57.531Z,97865.49
2017-12-09T02:05:25.066Z,97873.59
2017-12-09T02:07:52.576Z,97871.41
2017-12-09T02:10:20.086Z,97876.14
2017-12-09T02:12:47.621Z,97869.84
2017-12-09T02:15:15.153Z,97863.40
2017-12-09T02:17:42.708Z,97872.91
2017-12-09T02:20:10.208Z,97862.06
2017-12-09T02:22:37.721Z,97856.72
2017-12-09T02:25:05.226Z,97850.66
2017-12-09T02:27:32.751Z,97847.94
2017-12-09T02:30:00.241Z,97844.37
2017-12-09T02:32:27.780Z,97847.73
2017-12-09T02:34:55.289Z,97845.36
2017-12-09T02:37:22.833Z,97844.41
2017-12-09T02:39:50.337Z,97843.21
2017-12-09T02:42:17.845Z,97847.55
2017-12-09T02:44:45.337Z,97847.52
2017-12-09T02:47:12.848Z,97847.55
2017-12-09T02:49:40.364Z,97850.32
2017-12-09T02:52:07.878Z,97842.91
2017-12-09T02:54:35.444Z,97849.25
2017-12-09T02:57:02.964Z,97845.45
2017-12-09T02:59:30.472Z,97853.78
2017-12-09T03:01:57.976Z,97858.93
2017-12-09T03:04:25.484Z,97860.66
2017-12-09T03:06:53.011Z,97861.59
2017-12-09T03:09:20.504Z,97870.93
2017-12-09T03:11:48.156Z,97867.63
2017-12-09T03:14:15.656Z,97862.16
2017-12-09T03:16:43.144Z,97868.20
2017-12-09T03:19:10.654Z,97858.34
2017-12-09T03:21:38.166Z,97862.84
2017-12-09T03:24:05.691Z,97860.25
2017-12-09T03:26:33.207Z,97865.96
2017-12-09T03:29:00.716Z,97853.91
2017-12-09T03:31:28.570Z,97866.73
2017-12-09T03:33:56.063Z,97867.87
2017-12-09T03:36:23.636Z,97873.77
2017-12-09T03:38:51.230Z,97872.84
2017-12-09T03:41:18.747Z,97870.05
2017-12-09T03:43:46.256Z,97879.30
2017-12-09T03:46:13.780Z,97877.83
2017-12-09T03:48:41.285Z,97881.80
2017-12-09T03:51:08.777Z,97876.30
2017-12-09T03:53:36.316Z,97886.34
2017-12-09T03:56:03.812Z,97885.48
2017-12-09T03:58:31.325Z,97880.97
2017-12-09T04:00:58.822Z,97882.77
2017-12-09T04:03:26.339Z,97889.30
2017-12-09T04:05:53.860Z,97892.89
2017-12-09T04:08:21.395Z,97884.00
2017-12-09T04:10:48.900Z,97895.93
2017-12-09T04:13:16.404Z,97899.16
2017-12-09T04:15:43.913Z,97897.82
2017-12-09T04:18:11.416Z,97904.27
2017-12-09T04:20:38.920Z,97906.88
2017-12-09T04:23:06.433Z,97913.82
2017-12-09T04:25:33.928Z,97917.52
2017-12-09T04:28:01.442Z,97925.45
2017-12-09T04:30:28.958Z,97921.02
2017-12-09T04:32:56.456Z,97933.05
2017-12-09T04:35:23.977Z,97923.94
2017-12-09T04:37:51.489Z,97927.04
2017-12-09T04:40:18.991Z,97922.30
2017-12-09T04:42:46.492Z,97918.56
2017-12-09T04:45:14.177Z,97915.98
2017-12-09T04:47:41.678Z,97910.52
2017-12-09T04:50:09.191Z,97907.80
2017-12-09T04:52:36.698Z,97908.61
2017-12-09T04:55:04.193Z,97896.98
2017-12-09T04:57:31.733Z,97890.91
2017-12-09T04:59:59.244Z,97893.38
2017-12-09T05:02:26.798Z,97890.39
2017-12-09T05:04:54.300Z,97895.02
2017-12-09T05:07:21.909Z,97898.13
2017-12-09T05:09:49.535Z,97895.90
2017-12-09T05:12:17.028Z,97904.20
2017-12-09T05:14:44.532Z,97901.95
2017-12-09T05:17:12.027Z,97905.29
2017-12-09T05:19:39.546Z,97907.63
2017-12-09T05:22:07.104Z,97903.42
2017-12-09T05:24:34.625Z,97904.34
2017-12-09T05:27:02.204Z,97909.00
2017-12-09T05:29:29.709Z,97911.66
2017-12-09T05:31:57.205Z,97919.06
2017-12-09T05:34:24.741Z,97917.36
2017-12-09T05:36:52.263Z,97924.48
2017-12-09T05:39:19.845Z,97933.84
2017-12-09T05:41:47.369Z,97926.28
2017-12-09T05:44:14.881Z,97925.47
2017-12-09T05:46:42.418Z,97932.00
2017-12-09T05:49:09.913Z,97936.02
2017-12-09T05:51:37.451Z,97936.09
2017-12-09T05:54:05.551Z,97935.86
2017-12-09T05:56:33.087Z,97941.56
2017-12-09T05:59:00.601Z,97946.33
2017-12-09T06:01:28.134Z,97950.02
2017-12-09T06:03:55.663Z,97954.20
2017-12-09T06:06:23.161Z,97950.31
2017-12-09T06:08:50.670Z,97953.99
2017-12-09T06:11:18.180Z,97946.53
2017-12-09T06:13:45.699Z,97945.55
2017-12-09T06:16:13.202Z,97947.44
2017-12-09T06:18:40.716Z,97949.76
2017-12-09T06:21:08.224Z,97947.41
2017-12-09T06:23:35.760Z,97962.08
2017-12-09T06:26:03.275Z,97961.58
2017-12-09T06:28:30.786Z,97960.75
2017-12-09T06:30:58.291Z,97968.88
2017-12-09T06:33:25.797Z,97972.11
2017-12-09T06:35:53.316Z,97970.52
2017-12-09T06:38:20.828Z,97963.41
2017-12-09T06:40:48.345Z,97967.67
2017-12-09T06:43:15.844Z,97961.40
2017-12-09T06:45:43.379Z,97972.66
2017-12-09T06:48:10.904Z,97965.55
2017-12-09T06:50:38.407Z,97971.11
2017-12-09T06:53:05.916Z,97969.46
2017-12-09T06:55:33.471Z,97971.13
2017-12-09T06:58:00.978Z,97976.23
2017-12-09T07:00:28.637Z,97975.11
2017-12-09T07:02:56.225Z,97978.06
2017-12-09T07:05:23.745Z,97974.59
2017-12-09T07:07:51.247Z,97983.58
2017-12-09T07:10:18.777Z,97985.66
2017-12-09T07:12:46.313Z,97984.77
2017-12-09T07:15:13.871Z,97980.11
2017-12-09T07:17:41.393Z,97976.13
2017-12-09T07:20:08.901Z,97987.25
2017-12-09T07:22:36.402Z,97997.05
2017-12-09T07:25:03.902Z,97997.22
2017-12-09T07:27:31.392Z,97990.41
2017-12-09T07:29:58.908Z,97992.59
2017-12-09T07:32:26.418Z,97993.57
2017-12-09T07:34:53.942Z,97995.73
2017-12-09T07:37:21.439Z,97988.81
2017-12-09T07:39:48.946Z,97997.59
2017-12-09T07:42:16.462Z,97990.92
2017-12-09T07:44:43.975Z,97987.31
2017-12-09T07:47:11.469Z,97989.66
2017-12-09T07:49:38.975Z,97995.75
2017-12-09T07:52:06.469Z,98001.64
2017-12-09T07:54:34.017Z,98008.67
2017-12-09T07:57:01.495Z,98014.98
2017-12-09T07:59:29.037Z,98015.70
2017-12-09T08:01:56.554Z,98025.67
2017-12-09T08:04:24.082Z,98029.30
2017-12-09T08:06:51.660Z,98028.50
2017-12-09T08:09:19.181Z,98033.47
2017-12-09T08:11:46.828Z,98038.65
2017-12-09T08:14:14.363Z,98039.92
2017-12-09T08:16:41.849Z,98032.66
2017-12-09T08:19:09.381Z,98040.34
2017-12-09T08:21:36.898Z,98039.00
2017-12-09T08:24:04.411Z,98041.36
2017-12-09T08:26:32.116Z,98037.84
2017-12-09T08:28:59.624Z,98034.55
2017-12-09T08:31:27.171Z,98039.83
2017-12-09T08:33:54.745Z,98042.30
2017-12-09T08:36:22.433Z,98045.86
2017-12-09T08:38:49.956Z,98047.48
2017-12-09T08:41:17.486Z,98055.76
2017-12-09T08:43:45.009Z,98057.67
2017-12-09T08:46:12.505Z,98060.55
2017-12-09T08:48:40.006Z,98066.21
2017-12-09T08:51:07.829Z,98059.80
2017-12-09T08:53:35.349Z,98053.51
2017-12-09T08:56:02.881Z,98061.81
2017-12-09T08:58:30.387Z,98065.09
2017-12-09T09:00:57.966Z,98068.39
2017-12-09T09:03:25.480Z,98068.15
2017-12-09T09:05:53.016Z,98066.11
2017-12-09T09:08:20.590Z,98071.24
2017-12-09T09:10:48.106Z,98075.50
2017-12-09T09:13:15.601Z,98078.53
2017-12-09T09:15:43.098Z,98082.66
2017-12-09T09:18:11.162Z,98064.14
2017-12-09T09:20:38.661Z,98079.80
2017-12-09T09:23:06.176Z,98080.53
2017-12-09T09:25:33.686Z,98081.59
2017-12-09T09:28:01.206Z,98081.44
2017-12-09T09:30:28.718Z,98089.68
2017-12-09T09:32:56.241Z,98092.75
2017-12-09T09:35:23.755Z,98094.87
2017-12-09T09:37:51.507Z,98094.77
2017-12-09T09:40:19.080Z,98092.38
2017-12-09T09:42:46.631Z,98091.47
2017-12-09T09:45:14.147Z,98088.53
2017-12-09T09:47:41.668Z,98083.80
2017-12-09T09:50:09.212Z,98073.82
2017-12-09T09:52:36.718Z,98077.20
2017-12-09T09:55:04.258Z,98079.23
2017-12-09T09:57:31.765Z,98077.20
2017-12-09T09:59:59.282Z,98085.32
2017-12-09T10:02:26.798Z,98086.20
2017-12-09T10:04:54.305Z,98095.97
2017-12-09T10:07:21.824Z,98093.59
2017-12-09T10:09:49.320Z,98098.73
2017-12-09T10:12:16.833Z,98104.35
2017-12-09T10:14:44.316Z,98104.76
2017-12-09T10:17:11.833Z,98106.91
2017-12-09T10:19:39.334Z,98098.47
2017-12-09T10:22:06.844Z,98092.41
2017-12-09T10:24:34.376Z,98087.59
2017-12-09T10:27:02.818Z,98080.63
2017-12-09T10:29:30.321Z,98076.62
2017-12-09T10:31:57.817Z,98083.66
2017-12-09T10:34:25.324Z,98078.01
2017-12-09T10:36:52.813Z,98074.09
2017-12-09T10:39:20.414Z,98081.03
2017-12-09T10:41:47.980Z,98076.44
2017-12-09T10:44:15.492Z,98080.81
2017-12-09T10:46:43.017Z,98076.72
2017-12-09T10:49:10.524Z,98077.21
2017-12-09T10:51:38.063Z,98075.61
2017-12-09T10:54:05.844Z,98073.65
2017-12-09T10:56:33.343Z,98072.80
2017-12-09T10:59:00.876Z,98065.23
2017-12-09T11:01:28.358Z,98057.53
2017-12-09T11:03:55.847Z,98055.31
2017-12-09T11:06:23.354Z,98058.66
2017-12-09T11:08:51.102Z,98052.41
2017-12-09T11:11:18.623Z,98054.96
2017-12-09T11:13:46.131Z,98046.63
2017-12-09T11:16:13.642Z,98051.74
2017-12-09T11:18:41.208Z,98051.71
2017-12-09T11:21:08.725Z,98047.28
2017-12-09T11:23:36.228Z,98050.02
2017-12-09T11:26:03.808Z,98049.70
2017-12-09T11:28:31.315Z,98060.19
2017-12-09T11:30:58.849Z,98056.53
2017-12-09T11:33:26.463Z,98058.60
2017-12-09T11:35:53.971Z,98052.97
2017-12-09T11:38:21.547Z,98060.69
2017-12-09T11:40:49.072Z,98055.13
2017-12-09T11:43:16.609Z,98057.75
2017-12-09T11:45:44.136Z,98058.55
2017-12-09T11:48:11.993Z,98061.36
2017-12-09T11:50:39.512Z,98054.70
2017-12-09T11:53:07.025Z,98050.92
2017-12-09T11:55:34.592Z,98051.55
2017-12-09T11:58:02.102Z,98057.16
2017-12-09T12:00:29.741Z,98038.16
2017-12-09T12:02:57.236Z,98049.34
2017-12-09T12:05:24.735Z,98041.39
2017-12-09T12:07:52.273Z,98045.66
2017-12-09T12:10:19.780Z,98039.42
2017-12-09T12:12:47.294Z,98028.68
2017-12-09T12:15:14.893Z,98035.95
2017-12-09T12:17:42.559Z,98041.24
2017-12-09T12:20:10.198Z,98060.13
2017-12-09T12:22:37.710Z,98056.11
2017-12-09T12:25:05.214Z,98051.47
2017-12-09T12:27:32.721Z,98054.40
2017-12-09T12:30:00.224Z,98052.00
2017-12-09T12:32:27.737Z,98045.02
2017-12-09T12:34:55.255Z,98038.54
2017-12-09T12:37:22.744Z,98033.97
2017-12-09T12:39:50.273Z,98031.92
2017-12-09T12:42:18.012Z,98024.67
2017-12-09T12:44:45.551Z,98025.94
2017-12-09T12:47:13.045Z,98028.23
2017-12-09T12:49:40.557Z,98022.78
2017-12-09T12:52:08.040Z,98028.39
2017-12-09T12:54:35.716Z,98027.76
2017-12-09T12:57:03.209Z,98023.01
2017-12-09T12:59:30.701Z,98023.30
2017-12-09T13:01:58.201Z,98021.52
2017-12-09T13:04:25.730Z,98024.08
2017-12-09T13:06:53.259Z,98022.50
2017-12-09T13:09:20.764Z,98029.28
2017-12-09T13:11:48.292Z,98023.90
2017-12-09T13:14:15.792Z,98020.72
2017-12-09T13:16:43.294Z,98018.20
2017-12-09T13:19:10.797Z,98019.78
2017-12-09T13:21:38.334Z,98018.52
2017-12-09T13:24:05.836Z,98022.09
2017-12-09T13:26:33.373Z,98015.67
2017-12-09T13:29:00.877Z,98019.09
2017-12-09T13:31:28.405Z,98018.11
2017-12-09T13:33:55.921Z,98010.48
2017-12-09T13:36:23.454Z,98012.31
2017-12-09T13:38:50.981Z,98020.72
2017-12-09T13:41:18.482Z,98016.34
2017-12-09T13:43:45.989Z,98020.04
2017-12-09T13:46:15.521Z,98023.16
2017-12-09T13:48:43.021Z,98010.83
2017-12-09T13:51:10.524Z,98013.90
2017-12-09T13:53:38.069Z,98020.28
2017-12-09T13:56:05.561Z,98032.38
2017-12-09T13:58:33.062Z,98040.31
2017-12-09T14:01:00.592Z,98038.25
2017-12-09T14:03:28.078Z,98039.91
2017-12-09T14:05:55.597Z,98044.25
2017-12-09T14:08:23.088Z,98046.31
2017-12-09T14:10:50.576Z,98043.03
2017-12-09T14:13:18.081Z,98044.42
2017-12-09T14:15:45.613Z,98039.28
2017-12-09T14:18:13.129Z,98048.94
2017-12-09T14:20:40.654Z,98049.58
2017-12-09T14:23:08.150Z,98058.92
2017-12-09T14:25:35.649Z,98063.34
2017-12-09T14:28:03.155Z,98063.71
2017-12-09T14:30:30.665Z,98067.50
2017-12-09T14:32:58.316Z,98062.73
2017-12-09T14:35:25.850Z,98055.45
2017-12-09T14:37:53.593Z,98059.59
2017-12-09T14:40:21.302Z,98056.84
2017-12-09T14:42:48.815Z,98063.28
2017-12-09T14:45:16.326Z,98061.83
2017-12-09T14:47:43.838Z,98063.70
2017-12-09T14:50:11.486Z,98066.20
2017-12-09T14:52:38.999Z,98052.16
2017-12-09T14:55:06.561Z,98063.13
2017-12-09T14:57:34.090Z,98050.83
2017-12-09T15:00:01.610Z,98053.84
2017-12-09T15:02:29.288Z,98059.72
2017-12-09T15:04:56.790Z,98053.44
2017-12-09T15:07:24.335Z,98055.07
2017-12-09T15:09:52.197Z,98052.05
2017-12-09T15:12:19.851Z,98056.40
2017-12-09T15:14:47.389Z,98054.36
2017-12-09T15:17:15.078Z,98045.92
2017-12-09T15:19:42.776Z,98051.27
2017-12-09T15:22:10.434Z,98056.97
2017-12-09T15:24:38.007Z,98061.45
2017-12-09T15:27:05.497Z,98055.06
2017-12-09T15:29:34.299Z,98061.72
2017-12-09T15:32:01.889Z,98061.14
2017-12-09T15:34:30.448Z,98059.06
2017-12-09T15:36:57.955Z,98059.86
2017-12-09T15:39:26.244Z,98054.44
2017-12-09T15:41:53.770Z,98057.55
2017-12-09T15:44:22.271Z,98051.52
2017-12-09T15:46:49.866Z,98050.72
2017-12-09T15:49:18.380Z,98041.54
2017-12-09T15:51:47.232Z,98042.65
2017-12-09T15:54:14.788Z,98040.78
2017-12-09T15:56:42.843Z,98046.95
2017-12-09T15:59:10.395Z,98051.16
2017-12-09T16:01:38.443Z,98047.48
2017-12-09T16:04:06.108Z,98046.84
2017-12-09T16:06:33.622Z,98043.06
2017-12-09T16:09:01.105Z,98046.93
2017-12-09T16:11:28.629Z,98043.65
2017-12-09T16:13:56.147Z,98045.27
2017-12-09T16:16:23.652Z,98044.27
2017-12-09T16:18:51.230Z,98038.70
2017-12-09T16:21:19.429Z,98042.23
2017-12-09T16:23:46.926Z,98042.63
2017-12-09T16:26:14.447Z,98034.70
2017-12-09T16:28:42.076Z,98035.35
2017-12-09T16:31:09.598Z,98030.66
2017-12-09T16:33:37.634Z,98033.16
2017-12-09T16:36:05.807Z,98031.61
2017-12-09T16:38:33.575Z,98022.58
2017-12-09T16:41:01.263Z,98022.63
2017-12-09T16:43:28.832Z,98022.53
2017-12-09T16:45:56.388Z,98021.43
2017-12-09T16:48:23.917Z,98026.30
2017-12-09T16:50:51.518Z,98024.79
2017-12-09T16:53:19.024Z,98015.06
2017-12-09T16:55:46.651Z,98022.11
2017-12-09T16:58:14.266Z,98030.08
2017-12-09T17:00:41.810Z,98031.33
2017-12-09T17:03:09.423Z,98027.48
2017-12-09T17:05:36.931Z,98027.27
2017-12-09T17:08:04.446Z,98023.44
2017-12-09T17:10:31.977Z,98020.02
2017-12-09T17:12:59.768Z,98025.84
2017-12-09T17:15:27.293Z,98024.59
2017-12-09T17:17:54.817Z,98021.48
2017-12-09T17:20:22.462Z,98025.13
2017-12-09T17:22:49.987Z,98032.80
2017-12-09T17:25:18.234Z,98028.81
2017-12-09T17:27:45.789Z,98030.85
2017-12-09T17:30:13.345Z,98031.95
2017-12-09T17:32:40.860Z,98036.01
2017-12-09T17:35:08.625Z,98033.73
2017-12-09T17:37:36.166Z,98027.50
2017-12-09T17:40:03.880Z,98030.69
2017-12-09T17:42:31.440Z,98027.36
2017-12-09T17:44:58.935Z,98022.36
2017-12-09T17:47:26.467Z,98024.05
2017-12-09T17:49:55.310Z,98018.20
2017-12-09T17:52:22.938Z,98028.65
2017-12-09T17:54:50.461Z,98026.70
2017-12-09T17:57:18.018Z,98029.41
2017-12-09T17:59:45.523Z,98029.29
2017-12-09T18:02:13.120Z,98027.01
2017-12-09T18:04:40.647Z,98029.89
2017-12-09T18:07:08.178Z,98029.47
2017-12-09T18:09:35.692Z,98027.30
2017-12-09T18:12:03.237Z,98020.06
2017-12-09T18:14:30.780Z,98022.55
2017-12-09T18:16:58.314Z,98024.50
2017-12-09T18:19:25.858Z,98017.95
2017-12-09T18:21:53.352Z,98015.32
2017-12-09T18:24:20.971Z,98016.19
2017-12-09T18:26:49.233Z,98006.19
2017-12-09T18:29:16.755Z,98009.73
2017-12-09T18:31:44.281Z,98010.93
2017-12-09T18:34:11.788Z,98009.47
2017-12-09T18:36:39.332Z,98011.48
2017-12-09T18:39:06.880Z,98006.98
2017-12-09T18:41:34.393Z,98003.21
2017-12-09T18:44:01.960Z,97996.84
2017-12-09T18:46:29.908Z,97997.97
2017-12-09T18:48:57.429Z,97999.88
2017-12-09T18:51:25.049Z,98001.06
2017-12-09T18:53:52.585Z,98003.31
2017-12-09T18:56:20.169Z,98007.94
2017-12-09T18:58:47.678Z,98009.54
2017-12-09T19:01:15.190Z,98011.34
2017-12-09T19:03:42.968Z,98009.61
2017-12-09T19:06:10.486Z,98011.79
2017-12-09T19:08:37.999Z,98020.09
2017-12-09T19:11:05.501Z,98026.64
2017-12-09T19:13:33.022Z,98029.88
2017-12-09T19:16:00.585Z,98025.59
2017-12-09T19:18:28.166Z,98032.60
2017-12-09T19:20:55.773Z,98026.75
2017-12-09T19:23:23.313Z,98032.78
2017-12-09T19:25:50.809Z,98029.64
2017-12-09T19:28:18.852Z,98026.92
2017-12-09T19:30:46.712Z,98027.34
2017-12-09T19:33:14.231Z,98018.34
2017-12-09T19:35:41.761Z,98018.06
2017-12-09T19:38:09.290Z,98013.33
2017-12-09T19:40:37.445Z,98009.02
2017-12-09T19:43:05.015Z,98004.78
2017-12-09T19:45:34.329Z,98001.27
2017-12-09T19:48:01.907Z,98006.34
2017-12-09T19:50:29.442Z,98003.18
2017-12-09T19:52:57.004Z,97989.64
2017-12-09T19:55:24.613Z,97989.50
2017-12-09T19:57:52.190Z,97988.70
2017-12-09T20:00:20.249Z,97977.05
2017-12-09T20:02:47.769Z,97975.66
2017-12-09T20:05:15.331Z,97970.00
2017-12-09T20:07:42.882Z,97961.74
2017-12-09T20:10:10.404Z,97955.14
2017-12-09T20:12:38.060Z,97962.31
2017-12-09T20:15:05.601Z,97964.55
2017-12-09T20:17:34.248Z,97966.87
2017-12-09T20:20:01.770Z,97965.72
2017-12-09T20:22:29.302Z,97963.45
2017-12-09T20:24:56.843Z,97961.33
2017-12-09T20:27:24.396Z,97957.80
2017-12-09T20:29:54.070Z,97968.44
2017-12-09T20:32:21.589Z,97974.56
2017-12-09T20:34:49.257Z,97972.69
2017-12-09T20:37:16.817Z,97973.67
2017-12-09T20:39:44.281Z,97968.41
2017-12-09T20:42:12.878Z,97968.95
2017-12-09T20:44:40.442Z,97966.55
2017-12-09T20:47:07.985Z,97968.05
2017-12-09T20:49:35.723Z,97964.42
2017-12-09T20:52:03.399Z,97968.44
2017-12-09T20:54:30.918Z,97968.83
2017-12-09T20:56:58.458Z,97962.58
2017-12-09T20:59:25.973Z,97962.64
2017-12-09T21:01:53.491Z,97966.09
2017-12-09T21:04:21.012Z,97960.05
2017-12-09T21:06:48.527Z,97964.24
2017-12-09T21:09:16.053Z,97958.16
2017-12-09T21:11:43.673Z,97956.02
2017-12-09T21:14:11.239Z,97949.23
2017-12-09T21:16:38.753Z,97950.11
2017-12-09T21:19:06.323Z,97949.41
2017-12-09T21:21:33.837Z,97935.87
2017-12-09T21:24:01.368Z,97940.80
2017-12-09T21:26:28.913Z,97934.48
2017-12-09T21:28:56.447Z,97938.70
2017-12-09T21:31:23.971Z,97934.78
2017-12-09T21:33:51.519Z,97938.41
2017-12-09T21:36:19.036Z,97938.88
2017-12-09T21:38:46.550Z,97937.57
2017-12-09T21:41:14.060Z,97935.66
2017-12-09T21:43:41.629Z,97931.81
2017-12-09T21:46:09.237Z,97925.87
2017-12-09T21:48:36.746Z,97926.93
2017-12-09T21:51:04.249Z,97924.00
2017-12-09T21:53:31.810Z,97925.19
2017-12-09T21:55:59.330Z,97917.03
2017-12-09T21:58:27.412Z,97906.66
2017-12-09T22:00:56.442Z,97910.55
2017-12-09T22:03:23.956Z,97904.50
2017-12-09T22:05:51.481Z,97897.71
2017-12-09T22:08:19.074Z,97889.45
2017-12-09T22:10:46.551Z,97884.69
2017-12-09T22:13:14.060Z,97879.22
2017-12-09T22:15:41.700Z,97871.93
2017-12-09T22:18:09.228Z,97873.66
2017-12-09T22:20:36.809Z,97871.20
2017-12-09T22:23:04.471Z,97868.22
2017-12-09T22:25:32.078Z,97864.95
2017-12-09T22:27:59.632Z,97847.62
2017-12-09T22:30:27.178Z,97857.45
2017-12-09T22:32:54.689Z,97856.48
2017-12-09T22:35:22.196Z,97848.89
2017-12-09T22:37:49.752Z,97839.58
2017-12-09T22:40:17.318Z,97828.62
2017-12-09T22:42:44.873Z,97827.33
2017-12-09T22:45:12.677Z,97825.83
2017-12-09T22:47:40.222Z,97820.73
2017-12-09T22:50:07.754Z,97817.22
2017-12-09T22:52:35.336Z,97810.27
2017-12-09T22:55:02.861Z,97805.23
2017-12-09T22:57:30.386Z,97799.32
2017-12-09T22:59:58.130Z,97790.03
2017-12-09T23:02:25.661Z,97778.13
2017-12-09T23:04:53.179Z,97773.25
2017-12-09T23:07:20.713Z,97762.19
2017-12-09T23:09:48.227Z,97760.13
2017-12-09T23:12:15.830Z,97755.31
2017-12-09T23:14:43.411Z,97748.73
2017-12-09T23:17:10.977Z,97735.17
2017-12-09T23:19:38.493Z,97733.29
2017-12-09T23:22:06.096Z,97724.03
2017-12-09T23:24:34.734Z,97714.67
2017-12-09T23:27:02.236Z,97716.44
2017-12-09T23:29:29.761Z,97714.75
2017-12-09T23:31:57.262Z,97707.31
2017-12-09T23:34:24.810Z,97703.16
2017-12-09T23:36:52.955Z,97696.73
2017-12-09T23:39:20.464Z,97695.16
2017-12-09T23:41:47.966Z,97689.71
2017-12-09T23:44:15.479Z,97682.22
2017-12-09T23:46:43.038Z,97676.04
2017-12-09T23:49:10.680Z,97674.38
2017-12-09T23:51:39.070Z,97664.14
2017-12-09T23:54:07.342Z,97655.25
2017-12-09T23:56:34.836Z,97651.41
2017-12-09T23:59:02.333Z,97646.06
